sensor_id;sensor_type;location;lat;lon;timestamp;pressure;altitude;pressure_sealevel;temperature;humidity
71107;BME280;58763;47.982;11.516;2023-05-20T00:00:48;94149.44;;;13.01;76.56
71107;BME280;58763;47.982;11.516;2023-05-20T00:03:15;94149.22;;;12.98;76.63
71107;BME280;58763;47.982;11.516;2023-05-20T00:05:41;94141.88;;;12.98;77.11
71107;BME280;58763;47.982;11.516;2023-05-20T00:08:06;94152.00;;;12.93;77.87
71107;BME280;58763;47.982;11.516;2023-05-20T00:10:34;94147.63;;;12.83;78.40
71107;BME280;58763;47.982;11.516;2023-05-20T00:13:00;94149.00;;;12.81;78.68
71107;BME280;58763;47.982;11.516;2023-05-20T00:15:26;94143.59;;;12.81;78.47
71107;BME280;58763;47.982;11.516;2023-05-20T00:17:52;94147.09;;;12.81;78.20
71107;BME280;58763;47.982;11.516;2023-05-20T00:20:17;94141.38;;;12.83;78.52
71107;BME280;58763;47.982;11.516;2023-05-20T00:22:43;94147.00;;;12.86;78.21
71107;BME280;58763;47.982;11.516;2023-05-20T00:25:08;94147.63;;;12.83;78.44
71107;BME280;58763;47.982;11.516;2023-05-20T00:27:34;94144.28;;;12.86;78.54
71107;BME280;58763;47.982;11.516;2023-05-20T00:30:00;94138.34;;;12.84;78.70
71107;BME280;58763;47.982;11.516;2023-05-20T00:32:25;94129.13;;;12.85;78.60
71107;BME280;58763;47.982;11.516;2023-05-20T00:34:55;94128.72;;;12.78;78.86
71107;BME280;58763;47.982;11.516;2023-05-20T00:37:21;94133.50;;;12.81;78.41
71107;BME280;58763;47.982;11.516;2023-05-20T00:39:46;94129.41;;;12.84;78.42
71107;BME280;58763;47.982;11.516;2023-05-20T00:42:22;94136.75;;;12.83;78.84
71107;BME280;58763;47.982;11.516;2023-05-20T00:44:47;94141.06;;;12.84;78.83
71107;BME280;58763;47.982;11.516;2023-05-20T00:47:14;94141.56;;;12.86;79.01
71107;BME280;58763;47.982;11.516;2023-05-20T00:49:41;94133.66;;;12.90;78.66
71107;BME280;58763;47.982;11.516;2023-05-20T00:52:07;94137.75;;;12.87;79.28
71107;BME280;58763;47.982;11.516;2023-05-20T00:54:32;94132.94;;;12.84;79.36
71107;BME280;58763;47.982;11.516;2023-05-20T00:56:58;94134.53;;;12.85;79.50
71107;BME280;58763;47.982;11.516;2023-05-20T00:59:25;94134.03;;;12.83;79.55
71107;BME280;58763;47.982;11.516;2023-05-20T01:01:51;94139.34;;;12.88;79.75
71107;BME280;58763;47.982;11.516;2023-05-20T01:04:16;94126.91;;;12.87;79.50
71107;BME280;58763;47.982;11.516;2023-05-20T01:06:42;94124.19;;;12.87;80.10
71107;BME280;58763;47.982;11.516;2023-05-20T01:09:08;94124.69;;;12.89;79.85
71107;BME280;58763;47.982;11.516;2023-05-20T01:11:38;94114.34;;;12.91;79.91
71107;BME280;58763;47.982;11.516;2023-05-20T01:14:07;94115.03;;;12.97;79.39
71107;BME280;58763;47.982;11.516;2023-05-20T01:16:35;94109.31;;;12.98;79.57
71107;BME280;58763;47.982;11.516;2023-05-20T01:19:06;94112.63;;;12.95;79.93
71107;BME280;58763;47.982;11.516;2023-05-20T01:21:38;94119.25;;;12.89;80.06
71107;BME280;58763;47.982;11.516;2023-05-20T01:24:04;94118.66;;;12.92;80.01
71107;BME280;58763;47.982;11.516;2023-05-20T01:26:30;94118.16;;;12.90;80.00
71107;BME280;58763;47.982;11.516;2023-05-20T01:28:57;94118.25;;;12.85;80.04
71107;BME280;58763;47.982;11.516;2023-05-20T01:31:31;94111.22;;;12.84;79.89
71107;BME280;58763;47.982;11.516;2023-05-20T01:33:59;94110.13;;;12.85;79.52
71107;BME280;58763;47.982;11.516;2023-05-20T01:36:25;94106.28;;;12.86;79.42
71107;BME280;58763;47.982;11.516;2023-05-20T01:38:52;94105.97;;;12.74;79.23
71107;BME280;58763;47.982;11.516;2023-05-20T01:41:20;94116.13;;;12.82;78.95
71107;BME280;58763;47.982;11.516;2023-05-20T01:43:46;94105.09;;;12.79;79.19
71107;BME280;58763;47.982;11.516;2023-05-20T01:46:12;94104.56;;;12.77;78.95
71107;BME280;58763;47.982;11.516;2023-05-20T01:48:39;94100.84;;;12.73;79.49
71107;BME280;58763;47.982;11.516;2023-05-20T01:51:05;94102.38;;;12.79;79.51
71107;BME280;58763;47.982;11.516;2023-05-20T01:53:30;94100.25;;;12.89;79.01
71107;BME280;58763;47.982;11.516;2023-05-20T01:55:56;94101.16;;;12.85;79.18
71107;BME280;58763;47.982;11.516;2023-05-20T01:58:21;94096.97;;;12.79;79.40
71107;BME280;58763;47.982;11.516;2023-05-20T02:00:47;94092.13;;;12.76;79.91
71107;BME280;58763;47.982;11.516;2023-05-20T02:03:12;94097.16;;;12.82;79.54
71107;BME280;58763;47.982;11.516;2023-05-20T02:05:38;94096.06;;;12.83;79.26
71107;BME280;58763;47.982;11.516;2023-05-20T02:08:03;94094.94;;;12.84;79.76
71107;BME280;58763;47.982;11.516;2023-05-20T02:10:29;94096.97;;;12.79;80.02
71107;BME280;58763;47.982;11.516;2023-05-20T02:12:54;94097.66;;;12.84;80.05
71107;BME280;58763;47.982;11.516;2023-05-20T02:15:20;94098.97;;;12.87;80.46
71107;BME280;58763;47.982;11.516;2023-05-20T02:17:45;94100.84;;;12.86;80.20
71107;BME280;58763;47.982;11.516;2023-05-20T02:20:11;94099.84;;;12.82;80.71
71107;BME280;58763;47.982;11.516;2023-05-20T02:22:38;94098.56;;;12.80;80.72
71107;BME280;58763;47.982;11.516;2023-05-20T02:25:04;94102.56;;;12.82;81.14
71107;BME280;58763;47.982;11.516;2023-05-20T02:27:30;94105.19;;;12.87;80.77
71107;BME280;58763;47.982;11.516;2023-05-20T02:29:56;94099.34;;;12.80;81.20
71107;BME280;58763;47.982;11.516;2023-05-20T02:32:21;94099.16;;;12.90;81.08
71107;BME280;58763;47.982;11.516;2023-05-20T02:34:55;94094.44;;;12.82;81.18
71107;BME280;58763;47.982;11.516;2023-05-20T02:37:20;94094.94;;;12.84;81.24
71107;BME280;58763;47.982;11.516;2023-05-20T02:39:46;94102.38;;;12.92;81.27
71107;BME280;58763;47.982;11.516;2023-05-20T02:42:12;94103.56;;;12.86;81.68
71107;BME280;58763;47.982;11.516;2023-05-20T02:44:38;94110.13;;;12.85;81.94
71107;BME280;58763;47.982;11.516;2023-05-20T02:47:03;94101.75;;;12.82;81.86
71107;BME280;58763;47.982;11.516;2023-05-20T02:49:29;94096.75;;;12.75;82.11
71107;BME280;58763;47.982;11.516;2023-05-20T02:51:54;94098.66;;;12.75;82.60
71107;BME280;58763;47.982;11.516;2023-05-20T02:54:20;94089.41;;;12.76;82.32
71107;BME280;58763;47.982;11.516;2023-05-20T02:56:46;94100.84;;;12.73;82.51
71107;BME280;58763;47.982;11.516;2023-05-20T02:59:11;94098.84;;;12.65;83.35
71107;BME280;58763;47.982;11.516;2023-05-20T03:01:36;94097.34;;;12.72;82.98
71107;BME280;58763;47.982;11.516;2023-05-20T03:04:02;94100.75;;;12.78;82.72
71107;BME280;58763;47.982;11.516;2023-05-20T03:06:29;94101.66;;;12.73;82.92
71107;BME280;58763;47.982;11.516;2023-05-20T03:08:55;94101.84;;;12.63;83.34
71107;BME280;58763;47.982;11.516;2023-05-20T03:11:22;94095.25;;;12.69;83.39
71107;BME280;58763;47.982;11.516;2023-05-20T03:13:48;94093.53;;;12.73;83.44
71107;BME280;58763;47.982;11.516;2023-05-20T03:16:13;94091.00;;;12.77;83.11
71107;BME280;58763;47.982;11.516;2023-05-20T03:18:39;94086.69;;;12.76;83.13
71107;BME280;58763;47.982;11.516;2023-05-20T03:21:05;94091.31;;;12.75;83.13
71107;BME280;58763;47.982;11.516;2023-05-20T03:23:30;94087.09;;;12.69;83.46
71107;BME280;58763;47.982;11.516;2023-05-20T03:25:55;94088.69;;;12.70;83.51
71107;BME280;58763;47.982;11.516;2023-05-20T03:28:21;94094.34;;;12.74;83.31
71107;BME280;58763;47.982;11.516;2023-05-20T03:30:46;94094.13;;;12.70;83.13
71107;BME280;58763;47.982;11.516;2023-05-20T03:33:12;94090.91;;;12.68;83.55
71107;BME280;58763;47.982;11.516;2023-05-20T03:35:37;94093.94;;;12.67;83.61
71107;BME280;58763;47.982;11.516;2023-05-20T03:38:03;94099.34;;;12.67;83.75
71107;BME280;58763;47.982;11.516;2023-05-20T03:40:28;94112.03;;;12.71;83.66
71107;BME280;58763;47.982;11.516;2023-05-20T03:42:54;94106.59;;;12.71;83.50
71107;BME280;58763;47.982;11.516;2023-05-20T03:45:20;94106.69;;;12.66;84.10
71107;BME280;58763;47.982;11.516;2023-05-20T03:47:45;94098.13;;;12.59;84.31
71107;BME280;58763;47.982;11.516;2023-05-20T03:50:11;94094.63;;;12.59;84.33
71107;BME280;58763;47.982;11.516;2023-05-20T03:52:36;94094.34;;;12.60;84.53
71107;BME280;58763;47.982;11.516;2023-05-20T03:55:02;94104.56;;;12.63;84.32
71107;BME280;58763;47.982;11.516;2023-05-20T03:57:28;94093.72;;;12.63;84.07
71107;BME280;58763;47.982;11.516;2023-05-20T03:59:54;94098.22;;;12.68;84.55
71107;BME280;58763;47.982;11.516;2023-05-20T04:02:20;94094.22;;;12.65;84.34
71107;BME280;58763;47.982;11.516;2023-05-20T04:04:45;94093.53;;;12.73;84.30
71107;BME280;58763;47.982;11.516;2023-05-20T04:07:11;94089.81;;;12.69;84.50
71107;BME280;58763;47.982;11.516;2023-05-20T04:09:37;94091.91;;;12.72;84.29
71107;BME280;58763;47.982;11.516;2023-05-20T04:12:04;94086.97;;;12.74;84.04
71107;BME280;58763;47.982;11.516;2023-05-20T04:14:30;94090.31;;;12.71;84.30
71107;BME280;58763;47.982;11.516;2023-05-20T04:17:02;94080.56;;;12.70;84.87
71107;BME280;58763;47.982;11.516;2023-05-20T04:19:28;94092.72;;;12.73;84.69
71107;BME280;58763;47.982;11.516;2023-05-20T04:21:55;94088.69;;;12.70;84.69
71107;BME280;58763;47.982;11.516;2023-05-20T04:24:21;94087.50;;;12.76;84.30
71107;BME280;58763;47.982;11.516;2023-05-20T04:26:50;94094.25;;;12.79;84.68
71107;BME280;58763;47.982;11.516;2023-05-20T04:29:16;94092.53;;;12.69;84.50
71107;BME280;58763;47.982;11.516;2023-05-20T04:31:46;94091.00;;;12.63;85.01
71107;BME280;58763;47.982;11.516;2023-05-20T04:34:13;94088.19;;;12.68;84.85
71107;BME280;58763;47.982;11.516;2023-05-20T04:36:38;94086.69;;;12.62;84.58
71107;BME280;58763;47.982;11.516;2023-05-20T04:39:04;94079.56;;;12.53;85.27
71107;BME280;58763;47.982;11.516;2023-05-20T04:41:32;94079.75;;;12.56;84.78
71107;BME280;58763;47.982;11.516;2023-05-20T04:43:57;94083.97;;;12.62;85.47
71107;BME280;58763;47.982;11.516;2023-05-20T04:46:25;94090.00;;;12.59;85.21
71107;BME280;58763;47.982;11.516;2023-05-20T04:48:51;94091.09;;;12.58;84.76
71107;BME280;58763;47.982;11.516;2023-05-20T04:51:16;94088.91;;;12.60;84.63
71107;BME280;58763;47.982;11.516;2023-05-20T04:53:42;94087.28;;;12.59;84.44
71107;BME280;58763;47.982;11.516;2023-05-20T04:56:10;94087.47;;;12.63;84.81
71107;BME280;58763;47.982;11.516;2023-05-20T04:58:35;94091.63;;;12.60;84.75
71107;BME280;58763;47.982;11.516;2023-05-20T05:01:01;94090.50;;;12.61;84.42
71107;BME280;58763;47.982;11.516;2023-05-20T05:03:26;94092.13;;;12.62;84.41
71107;BME280;58763;47.982;11.516;2023-05-20T05:05:56;94078.75;;;12.66;84.43
71107;BME280;58763;47.982;11.516;2023-05-20T05:08:21;94084.25;;;12.61;83.28
71107;BME280;58763;47.982;11.516;2023-05-20T05:10:47;94075.94;;;12.57;83.27
71107;BME280;58763;47.982;11.516;2023-05-20T05:13:12;94073.22;;;12.71;83.02
71107;BME280;58763;47.982;11.516;2023-05-20T05:15:38;94076.03;;;12.66;83.18
71107;BME280;58763;47.982;11.516;2023-05-20T05:18:04;94064.78;;;12.59;83.63
71107;BME280;58763;47.982;11.516;2023-05-20T05:20:30;94069.78;;;12.52;83.44
71107;BME280;58763;47.982;11.516;2023-05-20T05:22:55;94068.38;;;12.54;84.22
71107;BME280;58763;47.982;11.516;2023-05-20T05:25:21;94078.25;;;12.64;83.66
71107;BME280;58763;47.982;11.516;2023-05-20T05:27:46;94069.19;;;12.55;83.68
71107;BME280;58763;47.982;11.516;2023-05-20T05:30:14;94073.50;;;12.56;83.67
71107;BME280;58763;47.982;11.516;2023-05-20T05:32:40;94080.47;;;12.62;83.47
71107;BME280;58763;47.982;11.516;2023-05-20T05:35:06;94073.81;;;12.68;83.05
71107;BME280;58763;47.982;11.516;2023-05-20T05:37:32;94078.34;;;12.72;83.54
71107;BME280;58763;47.982;11.516;2023-05-20T05:39:57;94074.44;;;12.65;83.30
71107;BME280;58763;47.982;11.516;2023-05-20T05:42:22;94071.59;;;12.70;83.92
71107;BME280;58763;47.982;11.516;2023-05-20T05:44:48;94073.63;;;12.78;83.58
71107;BME280;58763;47.982;11.516;2023-05-20T05:47:14;94084.66;;;12.81;83.37
71107;BME280;58763;47.982;11.516;2023-05-20T05:49:40;94072.94;;;12.86;83.46
71107;BME280;58763;47.982;11.516;2023-05-20T05:52:05;94079.88;;;12.78;83.22
71107;BME280;58763;47.982;11.516;2023-05-20T05:54:31;94075.53;;;12.77;82.80
71107;BME280;58763;47.982;11.516;2023-05-20T05:56:56;94082.50;;;12.83;82.81
71107;BME280;58763;47.982;11.516;2023-05-20T05:59:22;94083.47;;;12.87;82.85
71107;BME280;58763;47.982;11.516;2023-05-20T06:01:47;94076.34;;;12.91;82.57
71107;BME280;58763;47.982;11.516;2023-05-20T06:04:13;94084.88;;;12.98;81.85
71107;BME280;58763;47.982;11.516;2023-05-20T06:06:39;94082.47;;;12.97;81.98
71107;BME280;58763;47.982;11.516;2023-05-20T06:09:05;94091.31;;;13.02;81.74
71107;BME280;58763;47.982;11.516;2023-05-20T06:11:30;94080.97;;;13.04;81.76
71107;BME280;58763;47.982;11.516;2023-05-20T06:13:56;94090.94;;;13.09;81.39
71107;BME280;58763;47.982;11.516;2023-05-20T06:16:21;94079.97;;;13.14;80.95
71107;BME280;58763;47.982;11.516;2023-05-20T06:18:47;94077.25;;;13.14;80.76
71107;BME280;58763;47.982;11.516;2023-05-20T06:21:17;94073.03;;;13.22;81.15
71107;BME280;58763;47.982;11.516;2023-05-20T06:23:42;94072.03;;;13.04;81.30
71107;BME280;58763;47.982;11.516;2023-05-20T06:26:08;94071.31;;;13.12;81.26
71107;BME280;58763;47.982;11.516;2023-05-20T06:28:34;94061.88;;;13.23;81.72
71107;BME280;58763;47.982;11.516;2023-05-20T06:31:00;94056.63;;;13.27;81.31
71107;BME280;58763;47.982;11.516;2023-05-20T06:33:26;94059.72;;;13.34;80.91
71107;BME280;58763;47.982;11.516;2023-05-20T06:35:54;94064.66;;;13.32;80.31
71107;BME280;58763;47.982;11.516;2023-05-20T06:38:20;94061.53;;;13.38;80.53
71107;BME280;58763;47.982;11.516;2023-05-20T06:40:47;94064.31;;;13.47;80.53
71107;BME280;58763;47.982;11.516;2023-05-20T06:43:13;94063.41;;;13.51;80.41
71107;BME280;58763;47.982;11.516;2023-05-20T06:45:39;94055.63;;;13.58;81.05
71107;BME280;58763;47.982;11.516;2023-05-20T06:48:04;94048.78;;;13.61;80.04
71107;BME280;58763;47.982;11.516;2023-05-20T06:50:30;94051.25;;;13.71;80.22
71107;BME280;58763;47.982;11.516;2023-05-20T06:52:55;94051.75;;;13.73;79.23
71107;BME280;58763;47.982;11.516;2023-05-20T06:55:21;94047.81;;;13.79;80.49
71107;BME280;58763;47.982;11.516;2023-05-20T06:57:46;94052.81;;;13.85;79.42
71107;BME280;58763;47.982;11.516;2023-05-20T07:00:12;94057.94;;;13.87;78.34
71107;BME280;58763;47.982;11.516;2023-05-20T07:02:38;94053.00;;;13.89;78.41
71107;BME280;58763;47.982;11.516;2023-05-20T07:05:05;94050.53;;;14.01;77.65
71107;BME280;58763;47.982;11.516;2023-05-20T07:07:31;94053.00;;;14.11;77.58
71107;BME280;58763;47.982;11.516;2023-05-20T07:09:57;94053.03;;;14.20;78.27
71107;BME280;58763;47.982;11.516;2023-05-20T07:12:23;94048.78;;;14.27;77.45
71107;BME280;58763;47.982;11.516;2023-05-20T07:14:49;94047.16;;;14.26;75.63
71107;BME280;58763;47.982;11.516;2023-05-20T07:17:14;94054.34;;;14.22;75.97
71107;BME280;58763;47.982;11.516;2023-05-20T07:19:41;94048.97;;;14.31;76.27
71107;BME280;58763;47.982;11.516;2023-05-20T07:22:06;94045.03;;;14.37;76.57
71107;BME280;58763;47.982;11.516;2023-05-20T07:24:31;94040.09;;;14.47;75.90
71107;BME280;58763;47.982;11.516;2023-05-20T07:26:57;94039.56;;;14.68;76.49
71107;BME280;58763;47.982;11.516;2023-05-20T07:29:23;94031.78;;;14.83;74.21
71107;BME280;58763;47.982;11.516;2023-05-20T07:31:48;94031.78;;;14.92;73.96
71107;BME280;58763;47.982;11.516;2023-05-20T07:34:14;94032.28;;;14.94;73.96
71107;BME280;58763;47.982;11.516;2023-05-20T07:36:40;94037.50;;;14.73;74.04
71107;BME280;58763;47.982;11.516;2023-05-20T07:39:06;94034.19;;;14.85;76.23
71107;BME280;58763;47.982;11.516;2023-05-20T07:41:31;94036.34;;;15.05;75.97
71107;BME280;58763;47.982;11.516;2023-05-20T07:43:57;94031.72;;;15.22;76.29
71107;BME280;58763;47.982;11.516;2023-05-20T07:46:22;94031.91;;;15.43;74.85
71107;BME280;58763;47.982;11.516;2023-05-20T07:48:48;94025.22;;;15.66;74.30
71107;BME280;58763;47.982;11.516;2023-05-20T07:51:13;94025.22;;;15.83;72.51
71107;BME280;58763;47.982;11.516;2023-05-20T07:53:39;94022.63;;;16.04;72.21
71107;BME280;58763;47.982;11.516;2023-05-20T07:56:04;94030.97;;;16.16;71.08
71107;BME280;58763;47.982;11.516;2023-05-20T07:58:30;94027.59;;;16.19;69.73
71107;BME280;58763;47.982;11.516;2023-05-20T08:00:56;94030.63;;;16.26;70.99
71107;BME280;58763;47.982;11.516;2023-05-20T08:03:21;94024.22;;;16.14;69.35
71107;BME280;58763;47.982;11.516;2023-05-20T08:05:47;94031.94;;;16.12;69.78
71107;BME280;58763;47.982;11.516;2023-05-20T08:08:13;94032.59;;;16.17;70.18
71107;BME280;58763;47.982;11.516;2023-05-20T08:10:38;94034.03;;;15.98;69.77
71107;BME280;58763;47.982;11.516;2023-05-20T08:13:06;94034.19;;;15.93;68.27
71107;BME280;58763;47.982;11.516;2023-05-20T08:15:31;94035.31;;;16.00;68.79
71107;BME280;58763;47.982;11.516;2023-05-20T08:17:57;94034.53;;;15.91;69.82
71107;BME280;58763;47.982;11.516;2023-05-20T08:20:22;94028.75;;;15.84;69.02
71107;BME280;58763;47.982;11.516;2023-05-20T08:22:50;94033.72;;;15.90;70.14
71107;BME280;58763;47.982;11.516;2023-05-20T08:25:16;94023.75;;;15.95;70.19
71107;BME280;58763;47.982;11.516;2023-05-20T08:27:41;94030.19;;;15.81;71.11
71107;BME280;58763;47.982;11.516;2023-05-20T08:30:07;94030.53;;;15.88;70.47
71107;BME280;58763;47.982;11.516;2023-05-20T08:32:35;94024.56;;;16.12;70.04
71107;BME280;58763;47.982;11.516;2023-05-20T08:35:01;94018.91;;;16.26;69.88
71107;BME280;58763;47.982;11.516;2023-05-20T08:37:27;94022.31;;;16.14;69.89
71107;BME280;58763;47.982;11.516;2023-05-20T08:39:53;94023.59;;;16.17;70.74
71107;BME280;58763;47.982;11.516;2023-05-20T08:42:21;94025.97;;;16.27;71.10
71107;BME280;58763;47.982;11.516;2023-05-20T08:44:49;94018.28;;;16.29;70.89
71107;BME280;58763;47.982;11.516;2023-05-20T08:47:16;94019.50;;;16.48;69.47
71107;BME280;58763;47.982;11.516;2023-05-20T08:49:42;94019.47;;;16.57;68.91
71107;BME280;58763;47.982;11.516;2023-05-20T08:52:08;94011.13;;;16.62;68.52
71107;BME280;58763;47.982;11.516;2023-05-20T08:54:47;94016.16;;;16.51;69.50
71107;BME280;58763;47.982;11.516;2023-05-20T08:57:14;94013.38;;;16.60;70.45
71107;BME280;58763;47.982;11.516;2023-05-20T08:59:44;94016.06;;;16.77;67.85
71107;BME280;58763;47.982;11.516;2023-05-20T09:02:13;94020.94;;;16.92;68.05
71107;BME280;58763;47.982;11.516;2023-05-20T09:04:39;94021.63;;;16.89;67.10
71107;BME280;58763;47.982;11.516;2023-05-20T09:07:05;94031.16;;;17.04;66.84
71107;BME280;58763;47.982;11.516;2023-05-20T09:09:32;94020.31;;;17.24;68.00
71107;BME280;58763;47.982;11.516;2023-05-20T09:11:59;94019.03;;;17.51;67.54
71107;BME280;58763;47.982;11.516;2023-05-20T09:14:25;94029.03;;;17.68;65.71
71107;BME280;58763;47.982;11.516;2023-05-20T09:16:52;94025.03;;;17.86;66.67
71107;BME280;58763;47.982;11.516;2023-05-20T09:19:22;94019.25;;;17.87;63.98
71107;BME280;58763;47.982;11.516;2023-05-20T09:21:51;94015.72;;;17.87;62.83
71107;BME280;58763;47.982;11.516;2023-05-20T09:24:22;94016.84;;;17.86;61.99
71107;BME280;58763;47.982;11.516;2023-05-20T09:26:48;94005.94;;;17.98;63.44
71107;BME280;58763;47.982;11.516;2023-05-20T09:29:14;94010.97;;;17.96;62.91
71107;BME280;58763;47.982;11.516;2023-05-20T09:31:40;93996.19;;;18.09;62.29
71107;BME280;58763;47.982;11.516;2023-05-20T09:34:05;94014.94;;;18.19;62.70
71107;BME280;58763;47.982;11.516;2023-05-20T09:36:33;94016.53;;;18.20;63.19
71107;BME280;58763;47.982;11.516;2023-05-20T09:39:00;94020.00;;;18.29;60.11
71107;BME280;58763;47.982;11.516;2023-05-20T09:41:33;94015.88;;;18.35;59.20
71107;BME280;58763;47.982;11.516;2023-05-20T09:44:04;94012.06;;;18.16;59.09
71107;BME280;58763;47.982;11.516;2023-05-20T09:46:32;94011.28;;;18.15;58.46
71107;BME280;58763;47.982;11.516;2023-05-20T09:48:58;94004.81;;;17.99;58.92
71107;BME280;58763;47.982;11.516;2023-05-20T09:51:25;94010.31;;;18.11;59.74
71107;BME280;58763;47.982;11.516;2023-05-20T09:53:52;94006.91;;;18.14;59.08
71107;BME280;58763;47.982;11.516;2023-05-20T09:56:19;94010.38;;;18.23;59.67
71107;BME280;58763;47.982;11.516;2023-05-20T09:58:46;94009.00;;;18.50;60.93
71107;BME280;58763;47.982;11.516;2023-05-20T10:01:14;94001.59;;;18.62;60.53
71107;BME280;58763;47.982;11.516;2023-05-20T10:03:40;93991.25;;;19.04;61.03
71107;BME280;58763;47.982;11.516;2023-05-20T10:11:44;93978.38;;;19.81;59.38
71107;BME280;58763;47.982;11.516;2023-05-20T10:14:27;93994.19;;;20.12;56.93
71107;BME280;58763;47.982;11.516;2023-05-20T10:19:33;93992.94;;;20.37;52.52
71107;BME280;58763;47.982;11.516;2023-05-20T10:22:07;93986.53;;;20.33;54.21
71107;BME280;58763;47.982;11.516;2023-05-20T10:24:34;93978.28;;;20.33;54.84
71107;BME280;58763;47.982;11.516;2023-05-20T10:27:01;93983.53;;;20.38;54.28
71107;BME280;58763;47.982;11.516;2023-05-20T10:29:28;93983.41;;;20.62;54.82
71107;BME280;58763;47.982;11.516;2023-05-20T10:31:54;93981.03;;;20.60;52.84
71107;BME280;58763;47.982;11.516;2023-05-20T10:34:23;93969.22;;;20.60;53.25
71107;BME280;58763;47.982;11.516;2023-05-20T10:39:30;93967.47;;;20.83;52.36
71107;BME280;58763;47.982;11.516;2023-05-20T10:42:08;93974.81;;;20.95;51.22
71107;BME280;58763;47.982;11.516;2023-05-20T10:44:44;93967.38;;;20.95;50.14
71107;BME280;58763;47.982;11.516;2023-05-20T10:47:11;93974.13;;;20.98;49.98
71107;BME280;58763;47.982;11.516;2023-05-20T10:49:43;93968.78;;;20.89;49.73
71107;BME280;58763;47.982;11.516;2023-05-20T10:52:13;93968.53;;;20.94;49.44
71107;BME280;58763;47.982;11.516;2023-05-20T10:54:46;93957.97;;;20.81;49.62
71107;BME280;58763;47.982;11.516;2023-05-20T10:57:12;93951.50;;;20.73;50.19
71107;BME280;58763;47.982;11.516;2023-05-20T10:59:38;93955.38;;;20.56;50.17
71107;BME280;58763;47.982;11.516;2023-05-20T11:02:04;93954.75;;;20.32;49.93
71107;BME280;58763;47.982;11.516;2023-05-20T11:04:31;93955.75;;;20.39;50.36
71107;BME280;58763;47.982;11.516;2023-05-20T11:06:57;93947.69;;;20.46;51.34
71107;BME280;58763;47.982;11.516;2023-05-20T11:09:23;93946.53;;;20.47;51.16
71107;BME280;58763;47.982;11.516;2023-05-20T11:11:53;93938.31;;;20.63;50.80
71107;BME280;58763;47.982;11.516;2023-05-20T11:14:20;93943.97;;;20.86;51.53
71107;BME280;58763;47.982;11.516;2023-05-20T11:16:50;93932.78;;;20.94;48.87
71107;BME280;58763;47.982;11.516;2023-05-20T11:19:16;93929.34;;;20.97;50.29
71107;BME280;58763;47.982;11.516;2023-05-20T11:21:46;93921.34;;;21.23;50.43
71107;BME280;58763;47.982;11.516;2023-05-20T11:24:13;93922.94;;;21.24;49.62
71107;BME280;58763;47.982;11.516;2023-05-20T11:26:39;93920.22;;;21.44;50.39
71107;BME280;58763;47.982;11.516;2023-05-20T11:29:05;93922.13;;;21.59;49.95
71107;BME280;58763;47.982;11.516;2023-05-20T11:31:31;93915.06;;;21.77;49.67
71107;BME280;58763;47.982;11.516;2023-05-20T11:33:59;93922.88;;;21.94;47.62
71107;BME280;58763;47.982;11.516;2023-05-20T11:36:28;93915.81;;;21.93;48.56
71107;BME280;58763;47.982;11.516;2023-05-20T11:38:56;93921.72;;;22.14;49.20
71107;BME280;58763;47.982;11.516;2023-05-20T11:41:23;93907.19;;;22.36;48.78
71107;BME280;58763;47.982;11.516;2023-05-20T11:43:59;93918.53;;;22.54;49.25
71107;BME280;58763;47.982;11.516;2023-05-20T11:46:25;93916.00;;;22.64;48.05
71107;BME280;58763;47.982;11.516;2023-05-20T11:48:54;93912.94;;;22.69;47.54
71107;BME280;58763;47.982;11.516;2023-05-20T11:51:26;93910.53;;;22.91;47.81
71107;BME280;58763;47.982;11.516;2023-05-20T11:53:52;93915.59;;;23.11;47.53
71107;BME280;58763;47.982;11.516;2023-05-20T11:56:19;93909.22;;;23.07;44.54
71107;BME280;58763;47.982;11.516;2023-05-20T11:58:46;93911.59;;;23.09;43.58
71107;BME280;58763;47.982;11.516;2023-05-20T12:01:11;93905.06;;;22.94;43.83
71107;BME280;58763;47.982;11.516;2023-05-20T12:03:37;93902.13;;;23.06;44.93
71107;BME280;58763;47.982;11.516;2023-05-20T12:06:02;93895.28;;;23.23;46.65
71107;BME280;58763;47.982;11.516;2023-05-20T12:08:28;93899.09;;;23.38;44.43
71107;BME280;58763;47.982;11.516;2023-05-20T12:10:54;93899.69;;;23.54;45.29
71107;BME280;58763;47.982;11.516;2023-05-20T12:13:19;93901.34;;;23.58;44.93
71107;BME280;58763;47.982;11.516;2023-05-20T12:15:45;93894.03;;;23.73;44.82
71107;BME280;58763;47.982;11.516;2023-05-20T12:18:10;93889.59;;;23.65;43.67
71107;BME280;58763;47.982;11.516;2023-05-20T12:20:36;93897.31;;;23.52;44.64
71107;BME280;58763;47.982;11.516;2023-05-20T12:23:02;93899.69;;;23.54;43.74
71107;BME280;58763;47.982;11.516;2023-05-20T12:25:28;93896.03;;;23.76;43.32
71107;BME280;58763;47.982;11.516;2023-05-20T12:27:54;93900.47;;;23.80;44.04
71107;BME280;58763;47.982;11.516;2023-05-20T12:30:21;93894.03;;;23.73;44.67
71107;BME280;58763;47.982;11.516;2023-05-20T12:32:48;93885.91;;;23.54;43.40
71107;BME280;58763;47.982;11.516;2023-05-20T12:35:23;93894.44;;;23.19;43.38
71107;BME280;58763;47.982;11.516;2023-05-20T12:37:49;93886.59;;;23.21;42.52
71107;BME280;58763;47.982;11.516;2023-05-20T12:40:14;93887.31;;;23.18;42.98
71107;BME280;58763;47.982;11.516;2023-05-20T12:42:40;93888.34;;;23.32;44.39
71107;BME280;58763;47.982;11.516;2023-05-20T12:45:07;93880.56;;;23.38;45.22
71107;BME280;58763;47.982;11.516;2023-05-20T12:47:34;93888.56;;;23.47;45.49
71107;BME280;58763;47.982;11.516;2023-05-20T12:50:00;93883.94;;;23.54;45.07
71107;BME280;58763;47.982;11.516;2023-05-20T12:52:27;93882.69;;;23.78;44.86
71107;BME280;58763;47.982;11.516;2023-05-20T12:54:54;93874.44;;;23.81;42.54
71107;BME280;58763;47.982;11.516;2023-05-20T12:57:20;93876.19;;;23.63;44.30